sensor_id;sensor_type;location;lat;lon;timestamp;temperature;humidity
26182;DHT22;13927;51.534;11.866;2023-07-13T00:01:35;18.70;99.90
26182;DHT22;13927;51.534;11.866;2023-07-13T00:04:05;18.50;99.90
26182;DHT22;13927;51.534;11.866;2023-07-13T00:06:31;18.50;99.90
26182;DHT22;13927;51.534;11.866;2023-07-13T00:09:02;18.40;99.90
26182;DHT22;13927;51.534;11.866;2023-07-13T00:11:29;18.40;99.90
26182;DHT22;13927;51.534;11.866;2023-07-13T00:13:57;18.30;99.90
26182;DHT22;13927;51.534;11.866;2023-07-13T00:16:34;18.30;99.90
26182;DHT22;13927;51.534;11.866;2023-07-13T00:22:44;18.30;99.90
26182;DHT22;13927;51.534;11.866;2023-07-13T00:25:13;18.20;99.90
26182;DHT22;13927;51.534;11.866;2023-07-13T00:27:39;18.30;99.90
26182;DHT22;13927;51.534;11.866;2023-07-13T00:30:07;18.30;99.90
26182;DHT22;13927;51.534;11.866;2023-07-13T00:32:36;18.40;99.90
26182;DHT22;13927;51.534;11.866;2023-07-13T00:35:14;18.30;99.90
26182;DHT22;13927;51.534;11.866;2023-07-13T00:37:43;18.40;99.90
26182;DHT22;13927;51.534;11.866;2023-07-13T00:40:15;18.30;99.90
26182;DHT22;13927;51.534;11.866;2023-07-13T00:42:42;18.40;99.90
26182;DHT22;13927;51.534;11.866;2023-07-13T00:47:39;18.30;99.90
26182;DHT22;13927;51.534;11.866;2023-07-13T00:50:27;18.30;99.90
26182;DHT22;13927;51.534;11.866;2023-07-13T00:52:59;18.20;99.90
26182;DHT22;13927;51.534;11.866;2023-07-13T00:55:34;18.00;99.90
26182;DHT22;13927;51.534;11.866;2023-07-13T00:58:01;18.00;99.90
26182;DHT22;13927;51.534;11.866;2023-07-13T01:00:36;17.80;99.90
26182;DHT22;13927;51.534;11.866;2023-07-13T01:03:05;17.80;99.90
26182;DHT22;13927;51.534;11.866;2023-07-13T01:05:50;17.70;99.90
26182;DHT22;13927;51.534;11.866;2023-07-13T01:08:24;17.60;99.90
26182;DHT22;13927;51.534;11.866;2023-07-13T01:10:56;17.60;99.90
26182;DHT22;13927;51.534;11.866;2023-07-13T01:14:08;17.60;99.90
26182;DHT22;13927;51.534;11.866;2023-07-13T01:16:42;17.70;99.90
26182;DHT22;13927;51.534;11.866;2023-07-13T01:19:43;17.60;99.90
26182;DHT22;13927;51.534;11.866;2023-07-13T01:22:15;17.70;99.90
26182;DHT22;13927;51.534;11.866;2023-07-13T01:24:49;17.70;99.90
26182;DHT22;13927;51.534;11.866;2023-07-13T01:27:37;17.70;99.90
26182;DHT22;13927;51.534;11.866;2023-07-13T01:30:10;17.80;99.90
26182;DHT22;13927;51.534;11.866;2023-07-13T01:32:40;17.80;99.90
26182;DHT22;13927;51.534;11.866;2023-07-13T01:35:16;17.80;99.90
26182;DHT22;13927;51.534;11.866;2023-07-13T01:37:45;17.80;99.90
26182;DHT22;13927;51.534;11.866;2023-07-13T01:40:13;17.90;99.90
26182;DHT22;13927;51.534;11.866;2023-07-13T01:42:42;17.90;99.90
26182;DHT22;13927;51.534;11.866;2023-07-13T01:45:10;18.00;99.90
26182;DHT22;13927;51.534;11.866;2023-07-13T01:47:56;18.00;99.90
26182;DHT22;13927;51.534;11.866;2023-07-13T01:50:32;18.00;99.90
26182;DHT22;13927;51.534;11.866;2023-07-13T01:53:22;18.00;99.90
26182;DHT22;13927;51.534;11.866;2023-07-13T01:55:52;18.00;99.90
26182;DHT22;13927;51.534;11.866;2023-07-13T01:58:42;18.00;99.90
26182;DHT22;13927;51.534;11.866;2023-07-13T02:01:13;18.00;99.90
26182;DHT22;13927;51.534;11.866;2023-07-13T02:03:43;18.00;99.90
26182;DHT22;13927;51.534;11.866;2023-07-13T02:06:09;18.00;99.90
26182;DHT22;13927;51.534;11.866;2023-07-13T02:08:40;18.00;99.90
26182;DHT22;13927;51.534;11.866;2023-07-13T02:11:11;17.90;99.90
26182;DHT22;13927;51.534;11.866;2023-07-13T02:13:44;17.90;99.90
26182;DHT22;13927;51.534;11.866;2023-07-13T02:16:13;17.80;99.90
26182;DHT22;13927;51.534;11.866;2023-07-13T02:18:56;17.70;99.90
26182;DHT22;13927;51.534;11.866;2023-07-13T02:21:36;17.60;99.90
26182;DHT22;13927;51.534;11.866;2023-07-13T02:24:10;17.50;99.90
26182;DHT22;13927;51.534;11.866;2023-07-13T02:26:52;17.50;99.90
26182;DHT22;13927;51.534;11.866;2023-07-13T02:29:23;17.50;99.90
26182;DHT22;13927;51.534;11.866;2023-07-13T02:31:53;17.40;99.90
26182;DHT22;13927;51.534;11.866;2023-07-13T02:34:22;17.50;99.90
26182;DHT22;13927;51.534;11.866;2023-07-13T02:37:08;17.40;99.90
26182;DHT22;13927;51.534;11.866;2023-07-13T02:39:41;17.40;99.90
26182;DHT22;13927;51.534;11.866;2023-07-13T02:42:12;17.40;99.90
26182;DHT22;13927;51.534;11.866;2023-07-13T02:44:42;17.40;99.90
26182;DHT22;13927;51.534;11.866;2023-07-13T02:47:09;17.70;99.90
26182;DHT22;13927;51.534;11.866;2023-07-13T02:49:37;17.40;99.90
26182;DHT22;13927;51.534;11.866;2023-07-13T02:52:10;17.40;99.90
26182;DHT22;13927;51.534;11.866;2023-07-13T02:54:44;17.30;99.90
26182;DHT22;13927;51.534;11.866;2023-07-13T02:57:19;17.20;99.90
26182;DHT22;13927;51.534;11.866;2023-07-13T02:59:52;17.20;99.90
26182;DHT22;13927;51.534;11.866;2023-07-13T03:02:23;17.20;99.90
26182;DHT22;13927;51.534;11.866;2023-07-13T03:04:52;17.10;99.90
26182;DHT22;13927;51.534;11.866;2023-07-13T03:07:33;17.10;99.90
26182;DHT22;13927;51.534;11.866;2023-07-13T03:10:14;17.00;99.90
26182;DHT22;13927;51.534;11.866;2023-07-13T03:12:42;16.90;99.90
26182;DHT22;13927;51.534;11.866;2023-07-13T03:15:12;16.80;99.90
26182;DHT22;13927;51.534;11.866;2023-07-13T03:17:41;16.80;99.90
26182;DHT22;13927;51.534;11.866;2023-07-13T03:20:27;16.70;99.90
26182;DHT22;13927;51.534;11.866;2023-07-13T03:22:54;16.80;99.90
26182;DHT22;13927;51.534;11.866;2023-07-13T03:25:24;16.80;99.90
26182;DHT22;13927;51.534;11.866;2023-07-13T03:27:59;16.80;99.90
26182;DHT22;13927;51.534;11.866;2023-07-13T03:30:40;16.90;99.90
26182;DHT22;13927;51.534;11.866;2023-07-13T03:33:12;16.90;99.90
26182;DHT22;13927;51.534;11.866;2023-07-13T03:35:55;16.80;99.90
26182;DHT22;13927;51.534;11.866;2023-07-13T03:38:39;16.70;99.90
26182;DHT22;13927;51.534;11.866;2023-07-13T03:41:28;16.60;99.90
26182;DHT22;13927;51.534;11.866;2023-07-13T03:44:04;16.60;99.90
26182;DHT22;13927;51.534;11.866;2023-07-13T03:47:24;16.60;99.90
26182;DHT22;13927;51.534;11.866;2023-07-13T03:50:49;16.60;99.90
26182;DHT22;13927;51.534;11.866;2023-07-13T03:53:48;16.50;99.90
26182;DHT22;13927;51.534;11.866;2023-07-13T03:59:54;16.50;99.90
26182;DHT22;13927;51.534;11.866;2023-07-13T04:03:02;16.60;99.90
26182;DHT22;13927;51.534;11.866;2023-07-13T04:06:03;16.60;99.90
26182;DHT22;13927;51.534;11.866;2023-07-13T04:09:00;16.70;99.90
26182;DHT22;13927;51.534;11.866;2023-07-13T04:11:42;16.90;99.90
26182;DHT22;13927;51.534;11.866;2023-07-13T04:14:33;16.80;99.90
26182;DHT22;13927;51.534;11.866;2023-07-13T04:18:05;16.90;99.90
26182;DHT22;13927;51.534;11.866;2023-07-13T04:21:15;17.00;99.90
26182;DHT22;13927;51.534;11.866;2023-07-13T04:24:17;17.10;99.90
26182;DHT22;13927;51.534;11.866;2023-07-13T04:28:02;17.20;99.90
26182;DHT22;13927;51.534;11.866;2023-07-13T04:30:31;17.40;99.90
26182;DHT22;13927;51.534;11.866;2023-07-13T04:33:00;17.40;99.90
26182;DHT22;13927;51.534;11.866;2023-07-13T04:35:36;17.50;99.90
26182;DHT22;13927;51.534;11.866;2023-07-13T04:38:16;17.70;99.90
26182;DHT22;13927;51.534;11.866;2023-07-13T04:40:47;17.70;99.90
26182;DHT22;13927;51.534;11.866;2023-07-13T04:43:34;17.90;99.90
26182;DHT22;13927;51.534;11.866;2023-07-13T04:46:30;17.90;99.90
26182;DHT22;13927;51.534;11.866;2023-07-13T04:49:27;18.00;99.90
26182;DHT22;13927;51.534;11.866;2023-07-13T04:52:06;18.20;99.90
26182;DHT22;13927;51.534;11.866;2023-07-13T04:55:01;18.40;99.90
26182;DHT22;13927;51.534;11.866;2023-07-13T04:57:29;18.60;99.90
26182;DHT22;13927;51.534;11.866;2023-07-13T05:00:19;18.70;99.90
26182;DHT22;13927;51.534;11.866;2023-07-13T05:03:04;18.80;99.90
26182;DHT22;13927;51.534;11.866;2023-07-13T05:06:09;19.00;99.90
26182;DHT22;13927;51.534;11.866;2023-07-13T05:08:42;19.20;99.90
26182;DHT22;13927;51.534;11.866;2023-07-13T05:15:11;19.60;99.90
26182;DHT22;13927;51.534;11.866;2023-07-13T05:18:11;19.80;99.90
26182;DHT22;13927;51.534;11.866;2023-07-13T05:20:44;20.00;99.90
26182;DHT22;13927;51.534;11.866;2023-07-13T05:23:35;20.20;99.90
26182;DHT22;13927;51.534;11.866;2023-07-13T05:26:41;20.30;99.90
26182;DHT22;13927;51.534;11.866;2023-07-13T05:29:31;20.40;99.90
26182;DHT22;13927;51.534;11.866;2023-07-13T05:32:12;20.50;99.90
26182;DHT22;13927;51.534;11.866;2023-07-13T05:35:33;20.70;99.90
26182;DHT22;13927;51.534;11.866;2023-07-13T05:38:02;20.80;99.90
26182;DHT22;13927;51.534;11.866;2023-07-13T05:40:31;21.00;99.90
26182;DHT22;13927;51.534;11.866;2023-07-13T05:43:31;21.10;99.90
26182;DHT22;13927;51.534;11.866;2023-07-13T05:47:09;21.30;99.90
26182;DHT22;13927;51.534;11.866;2023-07-13T05:50:30;21.50;99.90
26182;DHT22;13927;51.534;11.866;2023-07-13T05:53:46;21.70;99.90
26182;DHT22;13927;51.534;11.866;2023-07-13T05:57:20;21.90;99.90
26182;DHT22;13927;51.534;11.866;2023-07-13T06:00:25;22.20;99.90
26182;DHT22;13927;51.534;11.866;2023-07-13T06:02:54;22.40;99.90
26182;DHT22;13927;51.534;11.866;2023-07-13T06:05:21;22.60;99.90
26182;DHT22;13927;51.534;11.866;2023-07-13T06:07:47;22.80;99.90
26182;DHT22;13927;51.534;11.866;2023-07-13T06:10:12;23.00;99.90
26182;DHT22;13927;51.534;11.866;2023-07-13T06:12:38;23.20;99.90
26182;DHT22;13927;51.534;11.866;2023-07-13T06:15:04;23.30;99.90
26182;DHT22;13927;51.534;11.866;2023-07-13T06:17:30;23.50;99.90
26182;DHT22;13927;51.534;11.866;2023-07-13T06:19:56;23.50;99.90
26182;DHT22;13927;51.534;11.866;2023-07-13T06:22:22;23.60;99.90
26182;DHT22;13927;51.534;11.866;2023-07-13T06:24:48;23.60;99.90
26182;DHT22;13927;51.534;11.866;2023-07-13T06:27:13;23.70;99.90
26182;DHT22;13927;51.534;11.866;2023-07-13T06:29:39;23.80;99.90
26182;DHT22;13927;51.534;11.866;2023-07-13T06:32:06;23.90;99.90
26182;DHT22;13927;51.534;11.866;2023-07-13T06:34:33;24.00;99.90
26182;DHT22;13927;51.534;11.866;2023-07-13T06:36:59;24.10;99.90
26182;DHT22;13927;51.534;11.866;2023-07-13T06:39:25;24.30;99.90
26182;DHT22;13927;51.534;11.866;2023-07-13T06:41:50;24.40;99.90
26182;DHT22;13927;51.534;11.866;2023-07-13T06:44:16;24.40;99.90
26182;DHT22;13927;51.534;11.866;2023-07-13T06:46:41;24.50;99.90
26182;DHT22;13927;51.534;11.866;2023-07-13T06:49:08;24.70;99.90
26182;DHT22;13927;51.534;11.866;2023-07-13T06:51:34;24.70;99.90
26182;DHT22;13927;51.534;11.866;2023-07-13T06:54:00;24.60;99.90
26182;DHT22;13927;51.534;11.866;2023-07-13T06:56:26;24.60;99.90
26182;DHT22;13927;51.534;11.866;2023-07-13T06:58:51;24.70;99.90
26182;DHT22;13927;51.534;11.866;2023-07-13T07:01:17;24.60;99.90
26182;DHT22;13927;51.534;11.866;2023-07-13T07:03:43;24.60;99.90
26182;DHT22;13927;51.534;11.866;2023-07-13T07:06:15;24.80;99.90
26182;DHT22;13927;51.534;11.866;2023-07-13T07:08:42;24.80;99.90
26182;DHT22;13927;51.534;11.866;2023-07-13T07:11:19;24.70;99.90
26182;DHT22;13927;51.534;11.866;2023-07-13T07:13:48;24.60;99.90
26182;DHT22;13927;51.534;11.866;2023-07-13T07:16:15;24.60;99.90
26182;DHT22;13927;51.534;11.866;2023-07-13T07:18:41;24.60;99.90
26182;DHT22;13927;51.534;11.866;2023-07-13T07:21:07;24.80;99.90
26182;DHT22;13927;51.534;11.866;2023-07-13T07:23:33;25.00;99.90
26182;DHT22;13927;51.534;11.866;2023-07-13T07:25:58;25.20;99.90
26182;DHT22;13927;51.534;11.866;2023-07-13T07:28:24;25.50;99.90
26182;DHT22;13927;51.534;11.866;2023-07-13T07:30:52;25.50;99.90
26182;DHT22;13927;51.534;11.866;2023-07-13T07:33:19;25.30;99.90
26182;DHT22;13927;51.534;11.866;2023-07-13T07:36:05;25.30;99.90
26182;DHT22;13927;51.534;11.866;2023-07-13T07:38:31;25.30;99.90
26182;DHT22;13927;51.534;11.866;2023-07-13T07:40:56;25.30;99.90
26182;DHT22;13927;51.534;11.866;2023-07-13T07:43:22;25.30;99.90
26182;DHT22;13927;51.534;11.866;2023-07-13T07:45:48;25.30;99.90
26182;DHT22;13927;51.534;11.866;2023-07-13T07:48:14;25.70;99.90
26182;DHT22;13927;51.534;11.866;2023-07-13T07:50:40;25.90;99.90
26182;DHT22;13927;51.534;11.866;2023-07-13T07:53:07;26.20;99.90
26182;DHT22;13927;51.534;11.866;2023-07-13T07:55:34;26.10;99.90
26182;DHT22;13927;51.534;11.866;2023-07-13T07:58:00;26.40;99.90
26182;DHT22;13927;51.534;11.866;2023-07-13T08:00:27;26.60;99.90
26182;DHT22;13927;51.534;11.866;2023-07-13T08:02:55;26.80;99.90
26182;DHT22;13927;51.534;11.866;2023-07-13T08:05:21;26.70;99.90
26182;DHT22;13927;51.534;11.866;2023-07-13T08:07:47;26.60;99.90
26182;DHT22;13927;51.534;11.866;2023-07-13T08:10:12;26.20;99.90
26182;DHT22;13927;51.534;11.866;2023-07-13T08:12:39;25.90;99.90
26182;DHT22;13927;51.534;11.866;2023-07-13T08:15:08;25.70;99.90
26182;DHT22;13927;51.534;11.866;2023-07-13T08:17:35;25.70;99.90
26182;DHT22;13927;51.534;11.866;2023-07-13T08:20:01;25.80;99.90
26182;DHT22;13927;51.534;11.866;2023-07-13T08:22:27;25.90;99.90
26182;DHT22;13927;51.534;11.866;2023-07-13T08:28:21;26.00;99.90
26182;DHT22;13927;51.534;11.866;2023-07-13T08:30:47;25.70;99.90
26182;DHT22;13927;51.534;11.866;2023-07-13T08:33:20;25.90;99.90
26182;DHT22;13927;51.534;11.866;2023-07-13T08:35:55;26.30;99.90
26182;DHT22;13927;51.534;11.866;2023-07-13T08:38:22;26.60;99.90
26182;DHT22;13927;51.534;11.866;2023-07-13T08:40:52;26.70;99.90
26182;DHT22;13927;51.534;11.866;2023-07-13T08:43:30;26.70;99.90
26182;DHT22;13927;51.534;11.866;2023-07-13T08:46:08;26.80;99.90
26182;DHT22;13927;51.534;11.866;2023-07-13T08:48:57;27.00;99.90
26182;DHT22;13927;51.534;11.866;2023-07-13T08:51:33;27.20;99.90
26182;DHT22;13927;51.534;11.866;2023-07-13T08:54:09;27.20;99.90
26182;DHT22;13927;51.534;11.866;2023-07-13T08:56:55;27.10;99.90
26182;DHT22;13927;51.534;11.866;2023-07-13T08:59:26;26.90;99.90
26182;DHT22;13927;51.534;11.866;2023-07-13T09:04:54;26.60;99.90
26182;DHT22;13927;51.534;11.866;2023-07-13T09:10:52;26.60;99.90
26182;DHT22;13927;51.534;11.866;2023-07-13T09:13:43;26.40;99.90
26182;DHT22;13927;51.534;11.866;2023-07-13T09:16:15;26.30;99.90
26182;DHT22;13927;51.534;11.866;2023-07-13T09:18:48;26.00;99.90
26182;DHT22;13927;51.534;11.866;2023-07-13T09:27:17;27.30;99.90
26182;DHT22;13927;51.534;11.866;2023-07-13T09:29:57;27.60;99.90
26182;DHT22;13927;51.534;11.866;2023-07-13T09:32:29;27.50;99.90
26182;DHT22;13927;51.534;11.866;2023-07-13T09:34:56;27.80;99.90
26182;DHT22;13927;51.534;11.866;2023-07-13T09:37:30;28.10;99.90
26182;DHT22;13927;51.534;11.866;2023-07-13T09:39:59;28.00;99.90
26182;DHT22;13927;51.534;11.866;2023-07-13T09:42:26;28.00;99.90
26182;DHT22;13927;51.534;11.866;2023-07-13T09:44:56;27.70;99.90
26182;DHT22;13927;51.534;11.866;2023-07-13T09:47:31;27.60;99.90
26182;DHT22;13927;51.534;11.866;2023-07-13T09:50:18;27.80;99.90
26182;DHT22;13927;51.534;11.866;2023-07-13T09:52:48;28.10;99.90
26182;DHT22;13927;51.534;11.866;2023-07-13T09:58:44;28.40;99.90
26182;DHT22;13927;51.534;11.866;2023-07-13T10:01:11;28.30;99.90
26182;DHT22;13927;51.534;11.866;2023-07-13T10:03:39;28.30;99.90
26182;DHT22;13927;51.534;11.866;2023-07-13T10:06:13;28.60;99.90
26182;DHT22;13927;51.534;11.866;2023-07-13T10:08:45;29.00;99.90
26182;DHT22;13927;51.534;11.866;2023-07-13T10:11:19;28.80;99.90
26182;DHT22;13927;51.534;11.866;2023-07-13T10:13:57;28.70;99.60
26182;DHT22;13927;51.534;11.866;2023-07-13T10:16:35;28.90;99.50
26182;DHT22;13927;51.534;11.866;2023-07-13T10:19:25;29.40;99.00
26182;DHT22;13927;51.534;11.866;2023-07-13T10:22:20;29.50;97.50
26182;DHT22;13927;51.534;11.866;2023-07-13T10:24:52;28.50;97.90
26182;DHT22;13927;51.534;11.866;2023-07-13T10:27:37;28.10;98.40
26182;DHT22;13927;51.534;11.866;2023-07-13T10:32:47;27.00;98.80
26182;DHT22;13927;51.534;11.866;2023-07-13T10:35:16;26.80;99.70
26182;DHT22;13927;51.534;11.866;2023-07-13T10:37:56;27.30;99.90
26182;DHT22;13927;51.534;11.866;2023-07-13T10:40:31;27.90;99.10
26182;DHT22;13927;51.534;11.866;2023-07-13T10:43:07;28.40;96.90
26182;DHT22;13927;51.534;11.866;2023-07-13T10:45:47;28.70;96.30
26182;DHT22;13927;51.534;11.866;2023-07-13T10:48:15;28.90;95.70
26182;DHT22;13927;51.534;11.866;2023-07-13T10:50:44;29.10;96.20
26182;DHT22;13927;51.534;11.866;2023-07-13T10:53:20;29.20;96.20
26182;DHT22;13927;51.534;11.866;2023-07-13T10:56:00;29.20;94.20
26182;DHT22;13927;51.534;11.866;2023-07-13T10:58:43;29.00;93.80
26182;DHT22;13927;51.534;11.866;2023-07-13T11:01:12;29.00;92.90
26182;DHT22;13927;51.534;11.866;2023-07-13T11:10:46;28.50;92.00
26182;DHT22;13927;51.534;11.866;2023-07-13T11:13:55;28.00;92.40
26182;DHT22;13927;51.534;11.866;2023-07-13T11:22:46;27.40;93.10
26182;DHT22;13927;51.534;11.866;2023-07-13T11:30:39;27.70;92.40
26182;DHT22;13927;51.534;11.866;2023-07-13T11:33:50;27.90;92.30
26182;DHT22;13927;51.534;11.866;2023-07-13T11:36:24;28.40;91.90
26182;DHT22;13927;51.534;11.866;2023-07-13T11:39:24;28.10;91.20
26182;DHT22;13927;51.534;11.866;2023-07-13T11:41:59;28.20;91.20
26182;DHT22;13927;51.534;11.866;2023-07-13T11:44:28;27.90;91.40
26182;DHT22;13927;51.534;11.866;2023-07-13T11:47:07;28.10;92.50
26182;DHT22;13927;51.534;11.866;2023-07-13T11:49:42;28.30;93.00
26182;DHT22;13927;51.534;11.866;2023-07-13T11:52:19;28.70;91.30
26182;DHT22;13927;51.534;11.866;2023-07-13T11:54:55;28.80;90.60
26182;DHT22;13927;51.534;11.866;2023-07-13T11:57:30;29.30;91.50
26182;DHT22;13927;51.534;11.866;2023-07-13T12:00:02;29.30;90.10
26182;DHT22;13927;51.534;11.866;2023-07-13T12:02:44;29.40;90.50
26182;DHT22;13927;51.534;11.866;2023-07-13T12:08:39;29.90;88.10
26182;DHT22;13927;51.534;11.866;2023-07-13T12:11:16;30.10;87.80
26182;DHT22;13927;51.534;11.866;2023-07-13T12:13:44;30.40;86.90
26182;DHT22;13927;51.534;11.866;2023-07-13T12:16:15;30.40;86.00
26182;DHT22;13927;51.534;11.866;2023-07-13T12:18:43;30.00;90.20
26182;DHT22;13927;51.534;11.866;2023-07-13T12:21:18;29.50;89.10
26182;DHT22;13927;51.534;11.866;2023-07-13T12:23:47;29.30;89.40
26182;DHT22;13927;51.534;11.866;2023-07-13T12:26:18;29.00;88.40
26182;DHT22;13927;51.534;11.866;2023-07-13T12:29:15;28.80;87.90
26182;DHT22;13927;51.534;11.866;2023-07-13T12:31:45;29.20;87.60
26182;DHT22;13927;51.534;11.866;2023-07-13T12:34:24;29.40;86.60
26182;DHT22;13927;51.534;11.866;2023-07-13T12:37:01;29.70;84.90
26182;DHT22;13927;51.534;11.866;2023-07-13T12:39:35;29.90;85.60
26182;DHT22;13927;51.534;11.866;2023-07-13T12:42:24;29.90;84.10
26182;DHT22;13927;51.534;11.866;2023-07-13T12:44:56;29.90;82.70
26182;DHT22;13927;51.534;11.866;2023-07-13T12:47:24;29.80;79.90
26182;DHT22;13927;51.534;11.866;2023-07-13T12:49:55;30.00;80.70
26182;DHT22;13927;51.534;11.866;2023-07-13T12:52:33;29.90;80.80
26182;DHT22;13927;51.534;11.866;2023-07-13T12:55:26;29.60;80.90
26182;DHT22;13927;51.534;11.866;2023-07-13T12:57:57;29.20;82.50
26182;DHT22;13927;51.534;11.866;2023-07-13T13:00:36;29.00;83.10
26182;DHT22;13927;51.534;11.866;2023-07-13T13:03:30;29.30;83.90
26182;DHT22;13927;51.534;11.866;2023-07-13T13:06:03;29.60;80.70
26182;DHT22;13927;51.534;11.866;2023-07-13T13:08:53;29.20;81.00
26182;DHT22;13927;51.534;11.866;2023-07-13T13:11:21;28.90;80.60
26182;DHT22;13927;51.534;11.866;2023-07-13T13:13:49;28.90;81.20
26182;DHT22;13927;51.534;11.866;2023-07-13T13:16:28;28.80;82.20
26182;DHT22;13927;51.534;11.866;2023-07-13T13:22:37;29.00;81.60
26182;DHT22;13927;51.534;11.866;2023-07-13T13:25:03;29.20;80.10
26182;DHT22;13927;51.534;11.866;2023-07-13T13:31:12;29.80;81.10
26182;DHT22;13927;51.534;11.866;2023-07-13T13:33:43;29.90;80.50
26182;DHT22;13927;51.534;11.866;2023-07-13T13:36:19;29.80;78.00
26182;DHT22;13927;51.534;11.866;2023-07-13T13:38:47;29.60;78.00
26182;DHT22;13927;51.534;11.866;2023-07-13T13:41:13;29.40;78.20
26182;DHT22;13927;51.534;11.866;2023-07-13T13:43:41;29.20;78.50
26182;DHT22;13927;51.534;11.866;2023-07-13T13:46:19;29.00;80.90
26182;DHT22;13927;51.534;11.866;2023-07-13T13:48:47;29.20;82.40
26182;DHT22;13927;51.534;11.866;2023-07-13T13:51:32;29.20;80.50
26182;DHT22;13927;51.534;11.866;2023-07-13T13:53:58;29.60;80.00
26182;DHT22;13927;51.534;11.866;2023-07-13T13:56:24;29.50;80.30
26182;DHT22;13927;51.534;11.866;2023-07-13T13:58:51;29.80;79.30
26182;DHT22;13927;51.534;11.866;2023-07-13T14:01:20;30.00;79.20
26182;DHT22;13927;51.534;11.866;2023-07-13T14:03:47;30.20;79.20
26182;DHT22;13927;51.534;11.866;2023-07-13T14:06:17;30.40;78.00
26182;DHT22;13927;51.534;11.866;2023-07-13T14:08:43;30.40;77.70
26182;DHT22;13927;51.534;11.866;2023-07-13T14:11:13;30.40;80.30
26182;DHT22;13927;51.534;11.866;2023-07-13T14:13:43;30.30;79.00
26182;DHT22;13927;51.534;11.866;2023-07-13T14:16:15;30.10;79.00
26182;DHT22;13927;51.534;11.866;2023-07-13T14:18:44;30.40;80.60
26182;DHT22;13927;51.534;11.866;2023-07-13T14:21:22;30.00;81.40
26182;DHT22;13927;51.534;11.866;2023-07-13T14:23:49;29.60;80.50
26182;DHT22;13927;51.534;11.866;2023-07-13T14:26:18;29.60;90.60
26182;DHT22;13927;51.534;11.866;2023-07-13T14:28:55;29.20;80.50
26182;DHT22;13927;51.534;11.866;2023-07-13T14:31:25;28.90;81.40
26182;DHT22;13927;51.534;11.866;2023-07-13T14:33:54;28.80;81.30
26182;DHT22;13927;51.534;11.866;2023-07-13T14:36:30;28.80;81.40
26182;DHT22;13927;51.534;11.866;2023-07-13T14:38:58;28.80;80.80
26182;DHT22;13927;51.534;11.866;2023-07-13T14:41:26;28.30;80.40
26182;DHT22;13927;51.534;11.866;2023-07-13T14:43:51;27.90;81.60
26182;DHT22;13927;51.534;11.866;2023-07-13T14:46:30;27.70;81.80
26182;DHT22;13927;51.534;11.866;2023-07-13T14:49:23;27.70;82.50
26182;DHT22;13927;51.534;11.866;2023-07-13T14:51:51;27.70;83.60
26182;DHT22;13927;51.534;11.866;2023-07-13T14:54:17;27.80;83.80
26182;DHT22;13927;51.534;11.866;2023-07-13T14:56:43;27.60;84.90
26182;DHT22;13927;51.534;11.866;2023-07-13T14:59:09;27.70;86.70
26182;DHT22;13927;51.534;11.866;2023-07-13T15:01:36;27.80;84.00
26182;DHT22;13927;51.534;11.866;2023-07-13T15:04:03;27.80;84.20
26182;DHT22;13927;51.534;11.866;2023-07-13T15:06:54;27.90;83.40
26182;DHT22;13927;51.534;11.866;2023-07-13T15:09:22;27.80;83.70
26182;DHT22;13927;51.534;11.866;2023-07-13T15:11:58;27.80;85.20
26182;DHT22;13927;51.534;11.866;2023-07-13T15:14:24;27.80;86.60
26182;DHT22;13927;51.534;11.866;2023-07-13T15:17:00;27.90;85.30
26182;DHT22;13927;51.534;11.866;2023-07-13T15:19:27;27.80;86.00
26182;DHT22;13927;51.534;11.866;2023-07-13T15:21:54;27.80;87.60
26182;DHT22;13927;51.534;11.866;2023-07-13T15:24:25;27.70;85.30
26182;DHT22;13927;51.534;11.866;2023-07-13T15:26:52;27.40;85.20
26182;DHT22;13927;51.534;11.866;2023-07-13T15:29:21;27.50;86.60
26182;DHT22;13927;51.534;11.866;2023-07-13T15:31:46;27.10;86.60
26182;DHT22;13927;51.534;11.866;2023-07-13T15:34:15;26.80;86.80
26182;DHT22;13927;51.534;11.866;2023-07-13T15:36:42;26.80;87.70
26182;DHT22;13927;51.534;11.866;2023-07-13T15:42:34;26.90;88.80
26182;DHT22;13927;51.534;11.866;2023-07-13T15:45:01;26.90;88.60
26182;DHT22;13927;51.534;11.866;2023-07-13T15:47:30;26.90;88.10
26182;DHT22;13927;51.534;11.866;2023-07-13T15:49:56;26.90;90.10
26182;DHT22;13927;51.534;11.866;2023-07-13T15:52:23;26.90;88.50
26182;DHT22;13927;51.534;11.866;2023-07-13T15:54:50;26.90;88.60
26182;DHT22;13927;51.534;11.866;2023-07-13T15:57:19;27.00;90.10
26182;DHT22;13927;51.534;11.866;2023-07-13T15:59:45;26.90;88.00
26182;DHT22;13927;51.534;11.866;2023-07-13T16:02:20;26.60;88.60
26182;DHT22;13927;51.534;11.866;2023-07-13T16:05:06;26.50;88.50
26182;DHT22;13927;51.534;11.866;2023-07-13T16:07:36;26.40;88.90
26182;DHT22;13927;51.534;11.866;2023-07-13T16:11:00;26.30;89.50
26182;DHT22;13927;51.534;11.866;2023-07-13T16:13:57;26.20;89.80
26182;DHT22;13927;51.534;11.866;2023-07-13T16:16:37;26.20;90.30
26182;DHT22;13927;51.534;11.866;2023-07-13T16:19:14;26.00;90.80
26182;DHT22;13927;51.534;11.866;2023-07-13T16:21:51;25.80;90.30
26182;DHT22;13927;51.534;11.866;2023-07-13T16:24:23;25.60;90.70
26182;DHT22;13927;51.534;11.866;2023-07-13T16:27:05;25.40;91.20
26182;DHT22;13927;51.534;11.866;2023-07-13T16:30:19;25.50;91.50
26182;DHT22;13927;51.534;11.866;2023-07-13T16:33:21;25.60;91.40
26182;DHT22;13927;51.534;11.866;2023-07-13T16:36:13;25.60;92.00
26182;DHT22;13927;51.534;11.866;2023-07-13T16:39:12;25.60;91.30
26182;DHT22;13927;51.534;11.866;2023-07-13T16:42:01;25.40;91.60
26182;DHT22;13927;51.534;11.866;2023-07-13T16:44:39;25.40;92.10
26182;DHT22;13927;51.534;11.866;2023-07-13T16:47:43;25.30;92.00
26182;DHT22;13927;51.534;11.866;2023-07-13T16:50:17;25.40;92.40
26182;DHT22;13927;51.534;11.866;2023-07-13T16:52:57;25.20;92.20
26182;DHT22;13927;51.534;11.866;2023-07-13T16:55:32;25.20;92.60
26182;DHT22;13927;51.534;11.866;2023-07-13T16:58:29;25.20;92.50
26182;DHT22;13927;51.534;11.866;2023-07-13T17:01:20;25.20;92.60
26182;DHT22;13927;51.534;11.866;2023-07-13T17:03:58;25.20;93.10
26182;DHT22;13927;51.534;11.866;2023-07-13T17:06:43;25.20;92.80
26182;DHT22;13927;51.534;11.866;2023-07-13T17:09:14;25.20;93.10
26182;DHT22;13927;51.534;11.866;2023-07-13T17:12:00;25.20;92.80
26182;DHT22;13927;51.534;11.866;2023-07-13T17:14:28;25.20;93.10
26182;DHT22;13927;51.534;11.866;2023-07-13T17:17:16;25.10;93.10
26182;DHT22;13927;51.534;11.866;2023-07-13T17:20:05;25.00;92.80